createdAt,value
2019-05-26T00:00:18.899Z,91.41
2019-05-26T00:02:47.410Z,90.25
2019-05-26T00:05:15.926Z,89.99
2019-05-26T00:07:44.430Z,89.93
2019-05-26T00:10:13.861Z,89.74
2019-05-26T00:12:42.668Z,89.14
2019-05-26T00:15:11.273Z,89.01
2019-05-26T00:17:39.709Z,88.63
2019-05-26T00:20:09.285Z,90.18
2019-05-26T00:22:37.790Z,93.47
2019-05-26T00:25:07.560Z,94.82
2019-05-26T00:27:36.018Z,95.60
2019-05-26T00:30:06.569Z,95.09
2019-05-26T00:32:34.983Z,94.29
2019-05-26T00:35:08.282Z,93.31
2019-05-26T00:37:48.679Z,93.40
2019-05-26T00:40:07.867Z,93.26
2019-05-26T00:42:36.390Z,93.74
2019-05-26T00:45:09.443Z,92.74
2019-05-26T00:47:37.867Z,91.68
2019-05-26T00:50:08.867Z,92.43
2019-05-26T00:52:37.656Z,92.09
2019-05-26T00:55:08.003Z,91.03
2019-05-26T00:57:36.780Z,91.24
2019-05-26T01:00:07.499Z,90.83
2019-05-26T01:02:35.912Z,90.82
2019-05-26T01:05:06.302Z,91.24
2019-05-26T01:07:34.775Z,91.35
2019-05-26T01:10:04.936Z,92.43
2019-05-26T01:12:33.387Z,93.13
2019-05-26T01:15:01.970Z,93.98
2019-05-26T01:17:30.400Z,94.10
2019-05-26T01:19:58.827Z,92.89
2019-05-26T01:22:27.404Z,92.32
2019-05-26T01:24:55.819Z,92.11
2019-05-26T01:27:24.246Z,91.63
2019-05-26T01:29:52.692Z,91.34
2019-05-26T01:32:21.112Z,91.02
2019-05-26T01:34:49.615Z,90.84
2019-05-26T01:37:18.306Z,93.01
2019-05-26T01:39:46.714Z,95.54
2019-05-26T01:42:15.131Z,95.53
2019-05-26T01:44:43.572Z,96.43
2019-05-26T01:47:12.015Z,97.43
2019-05-26T01:49:40.487Z,98.10
2019-05-26T01:52:08.892Z,97.11
2019-05-26T01:54:40.635Z,96.88
2019-05-26T01:57:07.558Z,96.67
2019-05-26T01:59:35.975Z,97.27
2019-05-26T02:02:04.761Z,98.35
2019-05-26T02:04:33.269Z,98.38
2019-05-26T02:07:01.732Z,97.37
2019-05-26T02:09:30.132Z,96.04
2019-05-26T02:11:58.549Z,94.88
2019-05-26T02:14:27.023Z,94.50
2019-05-26T02:16:55.483Z,95.24
2019-05-26T02:19:23.897Z,97.00
2019-05-26T02:21:52.449Z,98.98
2019-05-26T02:24:20.906Z,99.25
2019-05-26T02:26:49.341Z,98.96
2019-05-26T02:29:17.913Z,98.23
2019-05-26T02:31:46.359Z,97.75
2019-05-26T02:34:14.792Z,97.29
2019-05-26T02:36:43.229Z,98.31
2019-05-26T02:39:11.644Z,98.30
2019-05-26T02:41:40.142Z,98.70
2019-05-26T02:44:08.754Z,99.18
2019-05-26T02:46:37.186Z,97.95
2019-05-26T02:49:05.694Z,96.87
2019-05-26T02:51:34.133Z,97.68
2019-05-26T02:54:02.619Z,97.98
2019-05-26T02:56:31.214Z,98.02
2019-05-26T02:58:59.651Z,97.89
2019-05-26T03:01:28.749Z,97.86
2019-05-26T03:03:57.309Z,98.22
2019-05-26T03:06:28.161Z,97.44
2019-05-26T03:08:58.653Z,96.16
2019-05-26T03:11:29.710Z,95.51
2019-05-26T03:14:00.233Z,94.98
2019-05-26T03:16:31.310Z,95.56
2019-05-26T03:19:01.719Z,96.68
2019-05-26T03:21:33.007Z,96.89
2019-05-26T03:24:03.232Z,96.70
2019-05-26T03:26:31.850Z,97.63
2019-05-26T03:29:00.263Z,98.60
2019-05-26T03:31:28.788Z,98.25
2019-05-26T03:33:57.242Z,98.64
2019-05-26T03:36:25.716Z,99.87
2019-05-26T03:38:54.161Z,100.00
2019-05-26T03:41:22.590Z,100.00
2019-05-26T03:43:51.071Z,100.00
2019-05-26T03:46:20.519Z,100.00
2019-05-26T03:48:49.499Z,100.00
2019-05-26T03:51:17.990Z,100.00
2019-05-26T03:53:46.475Z,100.00
2019-05-26T03:56:14.915Z,100.00
2019-05-26T03:58:43.439Z,100.00
2019-05-26T04:01:11.960Z,100.00
2019-05-26T04:03:40.467Z,100.00
2019-05-26T04:06:09.017Z,100.00
2019-05-26T04:08:37.565Z,100.00
2019-05-26T04:11:06.090Z,100.00
2019-05-26T04:13:34.677Z,100.00
2019-05-26T04:16:03.166Z,100.00
2019-05-26T04:18:31.601Z,100.00
2019-05-26T04:21:00.046Z,99.82
2019-05-26T04:23:28.630Z,99.08
2019-05-26T04:25:57.115Z,98.07
2019-05-26T04:28:25.569Z,97.22
2019-05-26T04:30:54.028Z,96.85
2019-05-26T04:33:22.517Z,94.37
2019-05-26T04:35:50.956Z,94.65
2019-05-26T04:38:19.521Z,94.72
2019-05-26T04:40:48.001Z,94.95
2019-05-26T04:43:16.524Z,94.77
2019-05-26T04:45:45.049Z,94.54
2019-05-26T04:48:13.482Z,92.78
2019-05-26T04:50:42.036Z,91.58
2019-05-26T04:53:10.541Z,89.29
2019-05-26T04:55:38.964Z,89.28
2019-05-26T04:58:07.539Z,87.87
2019-05-26T05:00:35.960Z,88.80
2019-05-26T05:03:04.651Z,89.24
2019-05-26T05:05:33.164Z,87.96
2019-05-26T05:08:01.612Z,87.32
2019-05-26T05:10:41.967Z,86.82
2019-05-26T05:13:00.276Z,86.35
2019-05-26T05:15:28.765Z,85.58
2019-05-26T05:17:57.284Z,85.46
2019-05-26T05:20:25.773Z,84.98
2019-05-26T05:22:54.184Z,84.45
2019-05-26T05:25:22.776Z,84.04
2019-05-26T05:27:51.255Z,81.91
2019-05-26T05:30:19.796Z,82.55
2019-05-26T05:32:48.211Z,81.21
2019-05-26T05:35:17.596Z,81.54
2019-05-26T05:37:46.014Z,79.19
2019-05-26T05:40:16.204Z,77.85
2019-05-26T05:42:44.709Z,75.97
2019-05-26T05:45:13.465Z,73.91
2019-05-26T05:47:42.002Z,71.47
2019-05-26T05:50:11.197Z,71.90
2019-05-26T05:52:39.637Z,70.16
2019-05-26T05:55:09.201Z,68.75
2019-05-26T05:57:37.616Z,67.93
2019-05-26T06:00:07.499Z,65.60
2019-05-26T06:02:35.994Z,66.74
2019-05-26T06:05:07.267Z,66.27
2019-05-26T06:07:35.714Z,65.48
2019-05-26T06:10:07.182Z,63.78
2019-05-26T06:12:35.682Z,63.78
2019-05-26T06:15:07.087Z,63.35
2019-05-26T06:17:35.552Z,63.54
2019-05-26T06:20:05.612Z,62.24
2019-05-26T06:22:34.105Z,62.28
2019-05-26T06:25:02.665Z,61.18
2019-05-26T06:27:31.126Z,59.61
2019-05-26T06:29:59.618Z,58.96
2019-05-26T06:32:28.073Z,59.04
2019-05-26T06:34:56.497Z,57.87
2019-05-26T06:37:25.019Z,57.22
2019-05-26T06:39:53.468Z,57.65
2019-05-26T06:42:21.898Z,56.95
2019-05-26T06:44:53.836Z,56.25
2019-05-26T06:47:20.500Z,55.73
2019-05-26T06:49:48.963Z,54.41
2019-05-26T06:52:17.371Z,52.08
2019-05-26T06:54:45.890Z,51.57
2019-05-26T06:57:16.009Z,51.00
2019-05-26T06:59:44.462Z,50.19
2019-05-26T07:02:12.933Z,50.72
2019-05-26T07:04:41.431Z,48.67
2019-05-26T07:07:10.021Z,49.86
2019-05-26T07:09:38.468Z,47.32
2019-05-26T07:12:07.081Z,47.59
2019-05-26T07:14:35.527Z,46.89
2019-05-26T07:17:04.025Z,45.86
2019-05-26T07:19:32.477Z,44.69
2019-05-26T07:22:00.985Z,43.65
2019-05-26T07:24:29.749Z,42.82
2019-05-26T07:26:58.459Z,42.22
2019-05-26T07:29:27.026Z,42.57
2019-05-26T07:31:55.565Z,42.88
2019-05-26T07:34:24.039Z,42.73
2019-05-26T07:36:52.474Z,38.91
2019-05-26T07:39:20.970Z,39.49
2019-05-26T07:42:08.166Z,40.32
2019-05-26T07:44:19.686Z,38.01
2019-05-26T07:46:48.137Z,38.24
2019-05-26T07:49:16.564Z,36.34
2019-05-26T07:51:45.530Z,35.92
2019-05-26T07:54:24.992Z,34.41
2019-05-26T07:56:44.218Z,33.51
2019-05-26T07:59:12.777Z,34.40
2019-05-26T08:01:41.260Z,33.61
2019-05-26T08:04:09.747Z,32.78
2019-05-26T08:06:38.350Z,32.30
2019-05-26T08:09:08.569Z,30.81
2019-05-26T08:11:37.012Z,31.56
2019-05-26T08:14:05.518Z,29.40
2019-05-26T08:16:33.979Z,31.13
2019-05-26T08:19:02.433Z,31.67
2019-05-26T08:21:30.865Z,30.57
2019-05-26T08:23:59.384Z,28.61
2019-05-26T08:26:27.899Z,30.01
2019-05-26T08:28:56.371Z,30.67
2019-05-26T08:31:24.945Z,30.81
2019-05-26T08:33:53.418Z,30.50
2019-05-26T08:36:21.944Z,28.30
2019-05-26T08:38:50.427Z,30.54
2019-05-26T08:41:18.952Z,30.02
2019-05-26T08:43:47.380Z,29.59
2019-05-26T08:46:15.823Z,27.83
2019-05-26T08:48:44.280Z,27.26
2019-05-26T08:51:12.779Z,27.34
2019-05-26T08:53:41.997Z,26.62
2019-05-26T08:56:10.464Z,26.14
2019-05-26T08:58:38.880Z,26.33
2019-05-26T09:01:07.346Z,24.19
2019-05-26T09:03:35.818Z,25.96
2019-05-26T09:06:04.610Z,26.31
2019-05-26T09:08:33.054Z,25.56
2019-05-26T09:11:01.708Z,28.06
2019-05-26T09:13:30.216Z,26.85
2019-05-26T09:15:58.635Z,23.98
2019-05-26T09:18:27.177Z,23.98
2019-05-26T09:20:55.610Z,22.56
2019-05-26T09:23:24.078Z,22.46
2019-05-26T09:25:52.498Z,22.54
2019-05-26T09:28:20.939Z,20.02
2019-05-26T09:30:49.485Z,21.63
2019-05-26T09:33:17.969Z,22.80
2019-05-26T09:35:46.385Z,22.47
2019-05-26T09:38:14.842Z,22.36
2019-05-26T09:40:43.569Z,21.83
2019-05-26T09:43:16.084Z,24.23
2019-05-26T09:45:42.570Z,22.96
2019-05-26T09:48:11.194Z,20.96
2019-05-26T09:50:40.068Z,22.83
2019-05-26T09:53:08.901Z,24.00
2019-05-26T09:55:37.422Z,25.49
2019-05-26T09:58:05.960Z,23.41
2019-05-26T10:00:35.115Z,22.72
2019-05-26T10:03:03.660Z,22.57
2019-05-26T10:05:32.628Z,24.28
2019-05-26T10:08:02.253Z,25.91
2019-05-26T10:10:31.532Z,27.16
2019-05-26T10:13:00.260Z,27.90
2019-05-26T10:15:28.801Z,26.21
2019-05-26T10:17:57.236Z,24.12
2019-05-26T10:20:25.756Z,24.12
2019-05-26T10:22:54.317Z,28.99
2019-05-26T10:25:22.839Z,26.66
2019-05-26T10:27:51.373Z,24.33
2019-05-26T10:30:19.933Z,24.35
2019-05-26T10:32:48.391Z,24.18
2019-05-26T10:35:17.019Z,23.90
2019-05-26T10:37:45.455Z,22.84
2019-05-26T10:40:14.900Z,26.22
2019-05-26T10:42:43.308Z,23.44
2019-05-26T10:45:12.830Z,25.94
2019-05-26T10:47:41.324Z,23.55
2019-05-26T10:50:11.012Z,23.70
2019-05-26T10:52:39.514Z,25.84
2019-05-26T10:55:08.374Z,25.60
2019-05-26T10:57:37.126Z,23.77
2019-05-26T11:00:09.746Z,25.31
2019-05-26T11:02:38.399Z,24.22
2019-05-26T11:05:07.691Z,23.08
2019-05-26T11:07:36.132Z,22.97
2019-05-26T11:10:07.111Z,24.95
2019-05-26T11:12:35.678Z,26.43
2019-05-26T11:15:07.549Z,26.47
2019-05-26T11:17:36.069Z,28.19
2019-05-26T11:20:09.766Z,26.81
2019-05-26T11:22:38.393Z,28.99
2019-05-26T11:25:07.303Z,28.56
2019-05-26T11:27:35.858Z,26.67
2019-05-26T11:30:07.522Z,27.19
2019-05-26T11:32:36.094Z,27.84
2019-05-26T11:35:05.897Z,29.52
2019-05-26T11:37:34.346Z,29.66
2019-05-26T11:40:03.529Z,29.84
2019-05-26T11:42:32.028Z,30.03
2019-05-26T11:45:00.563Z,30.57
2019-05-26T11:47:29.073Z,30.43
2019-05-26T11:49:57.535Z,31.78
2019-05-26T11:52:26.088Z,30.87
2019-05-26T11:54:54.580Z,31.70
2019-05-26T11:57:23.085Z,30.76
2019-05-26T11:59:51.630Z,30.47
2019-05-26T12:02:20.217Z,32.30
2019-05-26T12:04:48.698Z,31.07
2019-05-26T12:07:17.122Z,30.64
2019-05-26T12:09:47.216Z,31.25
2019-05-26T12:12:15.687Z,29.86
2019-05-26T12:14:47.295Z,30.90
2019-05-26T12:17:15.971Z,30.67
2019-05-26T12:19:44.429Z,31.34
2019-05-26T12:22:12.950Z,32.87
2019-05-26T12:24:41.942Z,33.05
2019-05-26T12:27:10.366Z,32.71
2019-05-26T12:29:38.877Z,32.82
2019-05-26T12:32:07.357Z,34.43
2019-05-26T12:34:35.888Z,34.18
2019-05-26T12:37:04.454Z,33.66
2019-05-26T12:39:33.015Z,34.27
2019-05-26T12:42:01.679Z,32.89
2019-05-26T12:44:30.144Z,34.08
2019-05-26T12:46:58.632Z,34.11
2019-05-26T12:49:28.035Z,33.52
2019-05-26T12:51:56.558Z,32.88
2019-05-26T12:54:25.071Z,35.77
2019-05-26T12:56:53.645Z,33.45
2019-05-26T12:59:22.162Z,34.43
2019-05-26T13:01:50.610Z,34.74
2019-05-26T13:04:19.067Z,34.51
2019-05-26T13:06:47.559Z,33.52
2019-05-26T13:09:16.226Z,33.58
2019-05-26T13:11:46.317Z,34.83
2019-05-26T13:14:14.877Z,33.07
2019-05-26T13:16:43.368Z,32.32
2019-05-26T13:19:11.790Z,31.54
2019-05-26T13:21:40.262Z,31.17
2019-05-26T13:24:08.854Z,32.10
2019-05-26T13:26:37.384Z,32.63
2019-05-26T13:29:05.914Z,32.01
2019-05-26T13:31:34.365Z,33.31
2019-05-26T13:34:02.892Z,33.53
2019-05-26T13:36:31.389Z,31.81
2019-05-26T13:38:59.871Z,32.35
2019-05-26T13:41:28.282Z,33.59
2019-05-26T13:43:56.774Z,31.59
2019-05-26T13:46:25.194Z,32.43
2019-05-26T13:48:53.724Z,32.49
2019-05-26T13:51:22.243Z,33.58
2019-05-26T13:53:50.675Z,33.16
2019-05-26T13:56:19.205Z,33.39
2019-05-26T13:58:47.752Z,35.31
2019-05-26T14:01:16.457Z,34.48
2019-05-26T14:03:45.072Z,34.21
2019-05-26T14:06:13.567Z,34.90
2019-05-26T14:08:41.994Z,34.19
2019-05-26T14:11:10.525Z,34.84
2019-05-26T14:13:39.484Z,37.13
2019-05-26T14:16:08.033Z,39.05
2019-05-26T14:18:37.426Z,37.23
2019-05-26T14:21:05.943Z,36.37
2019-05-26T14:23:34.402Z,37.43
2019-05-26T14:26:02.932Z,37.89
2019-05-26T14:28:31.439Z,38.41
2019-05-26T14:30:59.980Z,37.27
2019-05-26T14:33:28.414Z,36.48
2019-05-26T14:35:57.022Z,37.81
2019-05-26T14:38:25.607Z,38.47
2019-05-26T14:40:54.101Z,37.30
2019-05-26T14:43:22.538Z,38.52
2019-05-26T14:45:53.712Z,37.49
2019-05-26T14:48:21.196Z,38.42
2019-05-26T14:50:49.640Z,37.41
2019-05-26T14:53:18.166Z,37.31
2019-05-26T14:55:46.675Z,37.96
2019-05-26T14:58:16.672Z,38.20
2019-05-26T15:00:45.470Z,38.06
2019-05-26T15:03:16.146Z,36.96
2019-05-26T15:05:44.587Z,38.22
2019-05-26T15:08:13.091Z,38.73
2019-05-26T15:10:41.692Z,38.77
2019-05-26T15:13:10.257Z,37.87
2019-05-26T15:15:38.694Z,38.63
2019-05-26T15:18:07.159Z,38.60
2019-05-26T15:20:35.699Z,37.67
2019-05-26T15:23:04.275Z,38.33
2019-05-26T15:25:32.859Z,39.87
2019-05-26T15:28:01.343Z,38.69
2019-05-26T15:30:29.899Z,39.12
2019-05-26T15:32:58.372Z,37.97
2019-05-26T15:35:26.883Z,38.90
2019-05-26T15:37:55.432Z,38.83
2019-05-26T15:40:24.051Z,38.50
2019-05-26T15:42:52.537Z,38.73
2019-05-26T15:45:21.159Z,39.21
2019-05-26T15:47:49.682Z,39.87
2019-05-26T15:50:18.478Z,40.11
2019-05-26T15:52:47.026Z,40.54
2019-05-26T15:55:15.610Z,39.96
2019-05-26T15:57:44.087Z,40.79
2019-05-26T16:00:13.161Z,40.28
2019-05-26T16:02:41.688Z,41.02
2019-05-26T16:05:11.132Z,41.47
2019-05-26T16:07:39.626Z,40.13
2019-05-26T16:10:08.636Z,40.41
2019-05-26T16:12:37.281Z,40.65
2019-05-26T16:15:08.249Z,41.96
2019-05-26T16:17:38.911Z,41.91
2019-05-26T16:20:08.190Z,41.64
2019-05-26T16:22:36.703Z,41.52
2019-05-26T16:25:07.646Z,40.81
2019-05-26T16:27:36.210Z,41.48
2019-05-26T16:30:09.707Z,42.04
2019-05-26T16:32:38.280Z,41.42
2019-05-26T16:35:07.647Z,41.19
2019-05-26T16:37:36.182Z,41.47
2019-05-26T16:40:06.278Z,41.44
2019-05-26T16:42:34.805Z,41.53
2019-05-26T16:45:04.288Z,40.50
2019-05-26T16:47:32.733Z,41.36
2019-05-26T16:50:01.192Z,40.82
2019-05-26T16:52:29.620Z,39.50
2019-05-26T16:54:58.077Z,39.78
2019-05-26T16:57:26.613Z,40.36
2019-05-26T16:59:55.058Z,41.01
2019-05-26T17:02:23.544Z,39.79
2019-05-26T17:04:52.080Z,40.63
2019-05-26T17:07:20.507Z,41.44
2019-05-26T17:09:48.975Z,41.79
2019-05-26T17:12:17.485Z,40.99
2019-05-26T17:14:45.955Z,41.12
2019-05-26T17:17:15.468Z,42.12
2019-05-26T17:19:44.032Z,42.90
2019-05-26T17:22:12.550Z,43.29
2019-05-26T17:24:41.030Z,43.32
2019-05-26T17:27:09.606Z,44.14
2019-05-26T17:29:38.207Z,42.27
2019-05-26T17:32:06.703Z,42.22
2019-05-26T17:34:35.508Z,43.25
2019-05-26T17:37:04.039Z,43.12
2019-05-26T17:39:32.508Z,42.65
2019-05-26T17:42:00.989Z,42.81
2019-05-26T17:44:29.572Z,43.43
2019-05-26T17:46:58.018Z,44.10
2019-05-26T17:49:26.635Z,44.55
2019-05-26T17:51:55.093Z,44.54
2019-05-26T17:54:23.600Z,44.75
2019-05-26T17:56:52.065Z,43.96
2019-05-26T17:59:20.668Z,45.33
2019-05-26T18:01:49.431Z,44.88
2019-05-26T18:04:17.970Z,46.04
2019-05-26T18:06:46.431Z,46.26
2019-05-26T18:09:15.075Z,46.79
2019-05-26T18:11:43.516Z,47.36
2019-05-26T18:14:11.951Z,46.65
2019-05-26T18:16:40.580Z,47.37
2019-05-26T18:19:09.185Z,47.19
2019-05-26T18:21:37.751Z,47.36
2019-05-26T18:24:06.350Z,47.80
2019-05-26T18:26:34.889Z,48.82
2019-05-26T18:29:03.585Z,48.66
2019-05-26T18:31:32.022Z,48.53
2019-05-26T18:34:00.534Z,49.59
2019-05-26T18:36:29.044Z,49.85
2019-05-26T18:38:57.492Z,49.38
2019-05-26T18:41:25.958Z,49.96
2019-05-26T18:43:54.546Z,50.81
2019-05-26T18:46:22.994Z,50.62
2019-05-26T18:48:51.559Z,50.48
2019-05-26T18:51:20.028Z,50.92
2019-05-26T18:53:48.542Z,51.54
2019-05-26T18:56:17.134Z,51.41
2019-05-26T18:58:45.632Z,51.77
2019-05-26T19:01:14.151Z,52.21
2019-05-26T19:03:42.603Z,54.07
2019-05-26T19:06:11.141Z,54.71
2019-05-26T19:08:39.732Z,55.13
2019-05-26T19:11:08.296Z,55.55
2019-05-26T19:13:36.855Z,55.67
2019-05-26T19:16:05.462Z,55.39
2019-05-26T19:18:33.880Z,53.85
2019-05-26T19:21:02.494Z,53.39
2019-05-26T19:23:31.024Z,54.30
2019-05-26T19:25:59.644Z,54.75
2019-05-26T19:28:28.083Z,54.71
2019-05-26T19:30:56.546Z,55.23
2019-05-26T19:33:25.145Z,55.43
2019-05-26T19:35:53.636Z,56.03
2019-05-26T19:38:22.130Z,56.72
2019-05-26T19:40:50.578Z,55.98
2019-05-26T19:43:19.023Z,57.70
2019-05-26T19:45:47.559Z,58.04
2019-05-26T19:48:16.073Z,59.06
2019-05-26T19:50:44.661Z,59.68
2019-05-26T19:53:13.128Z,59.47
2019-05-26T19:55:41.560Z,62.75
2019-05-26T19:58:10.167Z,64.04
2019-05-26T20:00:38.797Z,64.09
2019-05-26T20:03:07.366Z,63.73
2019-05-26T20:05:35.822Z,62.42
2019-05-26T20:08:04.445Z,62.16
2019-05-26T20:10:32.915Z,62.47
2019-05-26T20:13:01.409Z,62.25
2019-05-26T20:15:29.930Z,64.65
2019-05-26T20:17:58.497Z,65.26
2019-05-26T20:20:27.025Z,65.82
2019-05-26T20:22:55.573Z,66.29
2019-05-26T20:25:24.174Z,66.53
2019-05-26T20:27:52.591Z,65.74
2019-05-26T20:30:22.432Z,66.25
2019-05-26T20:32:51.595Z,67.48
2019-05-26T20:35:20.087Z,67.71
2019-05-26T20:37:48.536Z,66.37
2019-05-26T20:40:17.451Z,66.36
2019-05-26T20:42:45.860Z,67.45
2019-05-26T20:45:14.731Z,69.22
2019-05-26T20:47:43.230Z,69.79
2019-05-26T20:50:27.621Z,69.95
2019-05-26T20:52:42.220Z,69.30
2019-05-26T20:55:10.831Z,68.69
2019-05-26T20:57:39.356Z,69.08
2019-05-26T21:00:10.647Z,70.78
2019-05-26T21:02:39.809Z,70.34
2019-05-26T21:05:09.281Z,69.00
2019-05-26T21:07:37.717Z,70.41
2019-05-26T21:10:07.135Z,70.33
2019-05-26T21:12:35.714Z,72.31
2019-05-26T21:15:05.001Z,72.29
2019-05-26T21:17:33.417Z,71.02
2019-05-26T21:20:02.097Z,71.67
2019-05-26T21:22:30.537Z,72.86
2019-05-26T21:24:58.968Z,72.55
2019-05-26T21:27:27.420Z,73.70
2019-05-26T21:29:55.872Z,73.47
2019-05-26T21:32:24.376Z,73.86
2019-05-26T21:34:52.847Z,72.78
2019-05-26T21:37:21.272Z,72.26
2019-05-26T21:39:49.699Z,71.79
2019-05-26T21:42:18.218Z,70.78
2019-05-26T21:44:46.669Z,70.84
2019-05-26T21:47:15.601Z,70.41
2019-05-26T21:49:44.096Z,70.65
2019-05-26T21:52:12.644Z,70.47
2019-05-26T21:54:41.455Z,70.28
2019-05-26T21:57:09.936Z,71.23
2019-05-26T21:59:38.401Z,73.69
2019-05-26T22:02:06.969Z,73.99
2019-05-26T22:04:35.475Z,75.81
2019-05-26T22:07:03.982Z,76.78
2019-05-26T22:09:33.304Z,76.46
2019-05-26T22:12:01.845Z,75.75
2019-05-26T22:14:30.369Z,75.32
2019-05-26T22:16:58.794Z,77.00
2019-05-26T22:19:27.248Z,76.10
2019-05-26T22:21:55.679Z,76.79
2019-05-26T22:24:24.138Z,75.88
2019-05-26T22:26:52.588Z,75.99
2019-05-26T22:29:21.047Z,76.85
2019-05-26T22:31:49.555Z,77.46
2019-05-26T22:34:18.179Z,77.69
2019-05-26T22:36:46.728Z,77.03
2019-05-26T22:39:15.185Z,76.84
2019-05-26T22:41:43.701Z,75.93
2019-05-26T22:44:12.119Z,76.43
2019-05-26T22:46:40.581Z,76.32
2019-05-26T22:49:09.113Z,75.76
2019-05-26T22:51:37.563Z,76.24
2019-05-26T22:54:06.115Z,77.07
2019-05-26T22:56:34.563Z,78.11
2019-05-26T22:59:03.019Z,77.93
2019-05-26T23:01:31.493Z,78.85
2019-05-26T23:04:03.038Z,80.03
2019-05-26T23:06:30.168Z,81.08
2019-05-26T23:08:58.675Z,82.30
2019-05-26T23:11:27.085Z,82.22
2019-05-26T23:13:55.528Z,81.72
2019-05-26T23:16:23.977Z,81.35
2019-05-26T23:18:52.470Z,81.24
2019-05-26T23:21:20.911Z,81.13
2019-05-26T23:23:49.361Z,80.79
2019-05-26T23:26:17.779Z,81.04
2019-05-26T23:28:46.221Z,82.01
2019-05-26T23:31:14.818Z,81.94
2019-05-26T23:33:43.337Z,80.89
2019-05-26T23:36:11.780Z,82.16
2019-05-26T23:38:40.237Z,83.26
2019-05-26T23:41:08.679Z,83.12
2019-05-26T23:43:37.198Z,83.44
2019-05-26T23:46:05.694Z,83.32
2019-05-26T23:48:34.111Z,83.34
2019-05-26T23:51:02.583Z,84.12
2019-05-26T23:53:30.994Z,84.20
2019-05-26T23:55:59.446Z,84.39
2019-05-26T23:58:27.876Z,84.22
